Granbury, TX

12:13 AM CST on February 21, 2017 (GMT -0600)
Granbury

Weather History for KGDJ - August, 2013

Change the Weather History Date:

Saturday, August 10, 2013

  Actual Average (KMWL) Record (KMWL)
Temperature  
Mean Temperature 86 °F -  
Max Temperature 99 °F 94 °F 108 °F (2016)
Min Temperature 74 °F 71 °F 66 °F (2003)
Cooling Degree Days 22    
Growing Degree Days 36 (Base 50)    
Moisture  
Dew Point 68 °F    
Average Humidity 55    
Maximum Humidity 83    
Minimum Humidity 33    
Precipitation  
Precipitation 0.00 in - - ()
Sea Level Pressure  
Sea Level Pressure 30.04 in    
Wind  
Wind Speed 4 mph (NNW)    
Max Wind Speed 9 mph    
Max Gust Speed -    
Visibility 10 miles    
Events      
Averages and records for this station are not official NWS values.
T = Trace of Precipitation, MM = Missing Value Source: NWS Daily Summary

Daily Weather History Graph

Daily Weather History Graph

Search for Another Location

Airport or City:

Trip Planner

Search our weather history database for the weather conditions in past years. The results will help you decide how hot, cold, wet, or windy it might be!

Date:

Astronomy

Aug. 10, 2013 Rise Set
Actual Time 6:52 AM CDT 8:20 PM CDT
Civil Twilight 6:25 AM CDT 8:46 PM CDT
Nautical Twilight 5:54 AM CDT 9:18 PM CDT
Astronomical Twilight 5:21 AM CDT 9:50 PM CDT
Moon 10:23 AM CDT (8/10) 10:21 PM CDT (8/10)
Length of Visible Light 14h 20m
Length of Day
13h 28m
Waxing Crescent, 14% of the Moon is Illuminated
Aug 10
Waxing Crescent
Aug 14
First Quarter
Aug 20
Full
Aug 28
Last Quarter
Sep 5
New

Hourly Weather History & Observations

Time (CDT) Temp. Heat Index Dew Point Humidity Pressure Visibility Wind Dir Wind Speed Gust Speed Precip Events Conditions
12:15 AM 84.7 °F 86.3 °F 64.9 °F 51% 30.01 in 10.0 mi Calm Calm - N/A   Clear
12:35 AM 82.9 °F 84.8 °F 65.3 °F 55% 30.01 in 10.0 mi NNW 3.5 mph - N/A   Clear
12:55 AM 81.3 °F 83.3 °F 65.7 °F 59% 30.02 in 10.0 mi NW 4.6 mph - N/A   Clear
1:15 AM 80.6 °F 82.7 °F 66.2 °F 61% 30.02 in 10.0 mi West 3.5 mph - N/A   Clear
1:35 AM 80.2 °F 82.3 °F 66.2 °F 62% 30.02 in 10.0 mi WNW 3.5 mph - N/A   Clear
1:55 AM 79.9 °F - 66.4 °F 63% 30.02 in 10.0 mi West 3.5 mph - N/A   Clear
2:15 AM 78.8 °F - 66.6 °F 66% 30.02 in 10.0 mi Calm Calm - N/A   Clear
2:35 AM 79.7 °F - 67.3 °F 66% 30.02 in 10.0 mi Calm Calm - N/A   Clear
2:55 AM 78.4 °F - 67.3 °F 68% 30.02 in 10.0 mi WNW 3.5 mph - N/A   Clear
3:15 AM 77.4 °F - 67.1 °F 71% 30.02 in 10.0 mi West 4.6 mph - N/A   Clear
3:35 AM 76.5 °F - 67.1 °F 73% 30.02 in 10.0 mi West 3.5 mph - N/A   Clear
3:55 AM 76.1 °F - 67.3 °F 74% 30.02 in 10.0 mi West 4.6 mph - N/A   Clear
4:15 AM 76.1 °F - 67.6 °F 75% 30.02 in 10.0 mi West 4.6 mph - N/A   Clear
4:35 AM 75.6 °F - 67.1 °F 75% 30.03 in 10.0 mi Calm Calm - N/A   Clear
4:55 AM 75.0 °F - 67.3 °F 77% 30.03 in 10.0 mi WNW 5.8 mph - N/A   Clear
5:15 AM 74.5 °F - 67.3 °F 78% 30.04 in 10.0 mi West 3.5 mph - N/A   Clear
5:35 AM 75.0 °F - 67.8 °F 78% 30.04 in 10.0 mi Calm Calm - N/A   Clear
5:55 AM 75.2 °F - 68.0 °F 78% 30.04 in 10.0 mi WNW 4.6 mph - N/A   Clear
6:15 AM 74.3 °F - 68.0 °F 81% 30.05 in 10.0 mi West 4.6 mph - N/A   Clear
6:35 AM 74.3 °F - 68.2 °F 81% 30.05 in 10.0 mi West 5.8 mph - N/A   Clear
6:55 AM 74.3 °F - 68.5 °F 82% 30.05 in 10.0 mi West 5.8 mph - N/A   Clear
7:15 AM 74.5 °F - 68.9 °F 83% 30.06 in 10.0 mi West 3.5 mph - N/A   Clear
7:35 AM 75.6 °F - 69.8 °F 82% 30.06 in 10.0 mi Calm Calm - N/A   Clear
7:55 AM 77.0 °F - 70.3 °F 80% 30.07 in 10.0 mi Calm Calm - N/A   Clear
8:15 AM 77.9 °F - 70.9 °F 79% 30.07 in 10.0 mi WNW 3.5 mph - N/A   Clear
8:35 AM 79.9 °F - 72.0 °F 77% 30.08 in 10.0 mi North 4.6 mph - N/A   Clear
8:55 AM 81.1 °F 85.6 °F 72.3 °F 74% 30.08 in 10.0 mi NNW 6.9 mph - N/A   Scattered Clouds
9:15 AM 82.2 °F 87.6 °F 72.7 °F 73% 30.09 in 10.0 mi NNW 8.1 mph - N/A   Mostly Cloudy
9:35 AM 83.8 °F 89.8 °F 72.7 °F 69% 30.09 in 10.0 mi NNW 9.2 mph - N/A   Mostly Cloudy
9:55 AM 84.7 °F 91.0 °F 72.7 °F 67% 30.09 in 10.0 mi NNW 8.1 mph - N/A   Scattered Clouds
10:15 AM 85.3 °F 91.5 °F 72.5 °F 65% 30.09 in 10.0 mi NNW 8.1 mph - N/A   Clear
10:35 AM 86.2 °F 93.0 °F 72.7 °F 64% 30.09 in 10.0 mi NNW 5.8 mph - N/A   Clear
10:55 AM 87.1 °F 94.1 °F 72.5 °F 62% 30.09 in 10.0 mi NNW 9.2 mph - N/A   Clear
11:15 AM 88.3 °F 95.4 °F 72.1 °F 59% 30.10 in 10.0 mi North 9.2 mph - N/A   Clear
11:35 AM 89.4 °F 96.8 °F 72.3 °F 57% 30.10 in 10.0 mi NNW 6.9 mph - N/A   Clear
11:55 AM 90.5 °F 98.1 °F 72.3 °F 55% 30.10 in 10.0 mi NNE 8.1 mph - N/A   Clear
12:15 PM 91.2 °F 98.0 °F 71.6 °F 52% 30.10 in 10.0 mi NNE 5.8 mph - N/A   Clear
12:35 PM 92.1 °F 98.8 °F 71.1 °F 50% 30.09 in 10.0 mi NNW 9.2 mph - N/A   Clear
12:55 PM 94.3 °F 101.0 °F 70.3 °F 46% 30.08 in 10.0 mi North 8.1 mph - N/A   Clear
1:15 PM 94.5 °F 100.8 °F 70.2 °F 45% 30.09 in 10.0 mi NNW 9.2 mph - N/A   Scattered Clouds
1:35 PM 95.7 °F 102.1 °F 69.6 °F 43% 30.08 in 10.0 mi North 8.1 mph - N/A   Scattered Clouds
1:55 PM 95.7 °F 102.1 °F 69.6 °F 43% 30.07 in 10.0 mi North 9.2 mph - N/A   Scattered Clouds
2:15 PM 95.0 °F 100.1 °F 68.4 °F 42% 30.06 in 10.0 mi ENE 6.9 mph - N/A   Scattered Clouds
2:35 PM 95.4 °F 100.2 °F 68.0 °F 41% 30.05 in 10.0 mi NNE 5.8 mph - N/A   Scattered Clouds
2:55 PM 95.5 °F 100.0 °F 68.0 °F 40% 30.05 in 10.0 mi East 4.6 mph - N/A   Scattered Clouds
3:15 PM 96.1 °F 100.5 °F 67.3 °F 39% 30.05 in 10.0 mi NNW 6.9 mph - N/A   Scattered Clouds
3:35 PM 95.5 °F 100.0 °F 67.6 °F 40% 30.03 in 10.0 mi North 6.9 mph - N/A   Scattered Clouds
3:55 PM 96.8 °F 100.7 °F 66.9 °F 37% 30.03 in 10.0 mi North 8.1 mph - N/A   Mostly Cloudy
4:15 PM 97.9 °F 102.1 °F 66.9 °F 36% 30.01 in 10.0 mi NW 6.9 mph - N/A   Scattered Clouds
4:35 PM 98.1 °F 101.8 °F 65.8 °F 35% 30.01 in 10.0 mi NNW 4.6 mph - N/A   Clear
4:55 PM 98.6 °F 102.2 °F 65.5 °F 34% 30.00 in 10.0 mi NNW 9.2 mph - N/A   Clear
5:15 PM 99.0 °F 102.3 °F 64.9 °F 33% 30.00 in 10.0 mi North 5.8 mph - N/A   Clear
5:35 PM 98.6 °F 101.6 °F 64.9 °F 33% 30.00 in 10.0 mi North 6.9 mph - N/A   Clear
5:55 PM 98.6 °F 101.6 °F 64.6 °F 33% 29.99 in 10.0 mi North 4.6 mph - N/A   Clear
6:15 PM 98.4 °F 101.3 °F 64.4 °F 33% 29.99 in 10.0 mi North 3.5 mph - N/A   Clear
6:35 PM 97.7 °F 100.0 °F 64.2 °F 33% 29.98 in 10.0 mi North 8.1 mph - N/A   Clear
6:55 PM 97.5 °F 99.7 °F 63.7 °F 33% 29.98 in 10.0 mi NNW 6.9 mph - N/A   Clear
7:15 PM 96.8 °F 98.5 °F 63.7 °F 33% 29.98 in 10.0 mi North 6.9 mph - N/A   Clear
7:35 PM 95.9 °F 97.5 °F 63.7 °F 34% 29.99 in 10.0 mi North 5.8 mph - N/A   Clear
7:55 PM 95.0 °F 97.0 °F 64.2 °F 36% 29.99 in 10.0 mi NE 3.5 mph - N/A   Clear
8:15 PM 93.7 °F 95.3 °F 64.0 °F 37% 30.00 in 10.0 mi NE 4.6 mph - N/A   Clear
8:35 PM 92.3 °F 93.8 °F 64.4 °F 39% 30.00 in 10.0 mi NE 3.5 mph - N/A   Clear
8:55 PM 91.2 °F 92.9 °F 64.8 °F 41% 30.01 in 10.0 mi NE 3.5 mph - N/A   Clear
9:15 PM 90.5 °F 92.2 °F 64.8 °F 42% 30.02 in 10.0 mi NNE 3.5 mph - N/A   Clear
9:35 PM 89.1 °F 91.3 °F 65.7 °F 46% 30.02 in 10.0 mi NNE 3.5 mph - N/A   Clear
9:55 PM 88.9 °F 91.0 °F 65.5 °F 46% 30.03 in 10.0 mi NE 3.5 mph - N/A   Clear
10:15 PM 88.2 °F 90.3 °F 65.3 °F 47% 30.05 in 10.0 mi NE 3.5 mph - N/A   Clear
10:35 PM 87.1 °F 88.9 °F 65.3 °F 48% 30.05 in 10.0 mi Calm Calm - N/A   Clear
10:55 PM 86.5 °F 88.4 °F 65.5 °F 49% 30.05 in 10.0 mi Calm Calm - N/A   Clear
11:15 PM 85.5 °F 87.6 °F 66.0 °F 52% 30.05 in 10.0 mi Calm Calm - N/A   Clear
11:35 PM 85.3 °F 87.4 °F 65.7 °F 52% 30.06 in 10.0 mi SE 4.6 mph - N/A   Clear
11:55 PM 86.2 °F 88.4 °F 66.2 °F 51% 30.05 in 10.0 mi East 3.5 mph - N/A   Clear